createdAt,value
2023-01-28T00:07:27.610Z,54.94
2023-01-28T00:17:30.318Z,54.82
2023-01-28T00:27:32.857Z,53.39
2023-01-28T00:37:36.852Z,52.94
2023-01-28T00:47:39.127Z,51.57
2023-01-28T00:57:41.293Z,52.97
2023-01-28T01:07:44.936Z,51.44
2023-01-28T01:17:48.621Z,52.10
2023-01-28T01:27:50.825Z,50.38
2023-01-28T01:37:53.651Z,50.09
2023-01-28T01:48:01.771Z,50.64
2023-01-28T01:58:08.176Z,50.91
2023-01-28T02:08:22.327Z,51.59
2023-01-28T02:18:24.476Z,51.16
2023-01-28T02:28:29.678Z,49.47
2023-01-28T02:38:36.394Z,50.84
2023-01-28T02:48:39.170Z,51.96
2023-01-28T02:59:26.692Z,50.64
2023-01-28T03:09:32.148Z,49.04
2023-01-28T03:19:52.902Z,50.50
2023-01-28T03:30:16.156Z,47.43
2023-01-28T03:40:19.543Z,49.09
2023-01-28T03:50:22.019Z,51.37
2023-01-28T04:00:31.054Z,49.66
2023-01-28T04:10:33.378Z,48.13
2023-01-28T04:20:49.921Z,48.16
2023-01-28T04:30:54.539Z,48.02
2023-01-28T04:41:19.836Z,48.94
2023-01-28T04:51:22.575Z,47.31
2023-01-28T05:01:43.446Z,46.79
2023-01-28T05:11:46.529Z,46.55
2023-01-28T05:21:50.246Z,47.65
2023-01-28T05:32:18.686Z,47.63
2023-01-28T05:42:22.577Z,49.98
2023-01-28T05:52:30.551Z,50.17
2023-01-28T06:02:33.349Z,48.25
2023-01-28T06:12:36.104Z,46.63
2023-01-28T06:23:01.245Z,46.95
2023-01-28T06:33:04.435Z,45.40
2023-01-28T06:43:07.033Z,47.37
2023-01-28T06:53:11.384Z,47.39
2023-01-28T07:03:14.538Z,47.22
2023-01-28T07:13:16.908Z,46.40
2023-01-28T07:23:19.086Z,44.68
2023-01-28T07:33:21.587Z,46.75
2023-01-28T07:43:24.007Z,45.97
2023-01-28T07:53:26.351Z,44.63
2023-01-28T08:03:28.728Z,45.05
2023-01-28T08:13:30.909Z,49.08
2023-01-28T08:23:34.698Z,44.15
2023-01-28T08:33:36.958Z,45.52
2023-01-28T08:43:39.268Z,44.43
2023-01-28T08:53:41.699Z,44.74
2023-01-28T09:03:43.845Z,46.04
2023-01-28T09:13:46.061Z,46.03
2023-01-28T09:23:48.314Z,45.99
2023-01-28T09:33:56.629Z,45.52
2023-01-28T09:44:27.386Z,45.36
2023-01-28T09:54:44.124Z,46.69
2023-01-28T10:05:04.635Z,45.61
2023-01-28T10:15:28.118Z,45.22
2023-01-28T10:25:31.769Z,45.94
2023-01-28T10:35:43.836Z,44.51
2023-01-28T10:45:58.206Z,44.25
2023-01-28T10:56:01.421Z,43.15
2023-01-28T11:06:04.068Z,44.30
2023-01-28T11:16:15.089Z,42.73
2023-01-28T11:26:38.352Z,45.87
2023-01-28T11:36:51.571Z,46.28
2023-01-28T11:47:18.863Z,45.05
2023-01-28T11:57:29.625Z,45.66
2023-01-28T12:07:43.884Z,45.44
2023-01-28T12:17:53.954Z,42.97
2023-01-28T12:28:12.505Z,44.00
2023-01-28T12:38:36.701Z,45.17
2023-01-28T12:48:45.461Z,44.34
2023-01-28T12:58:53.810Z,43.05
2023-01-28T13:09:14.620Z,44.86
2023-01-28T13:19:20.129Z,43.79
2023-01-28T13:29:32.891Z,43.89
2023-01-28T13:39:37.203Z,43.88
2023-01-28T13:49:42.694Z,44.70
2023-01-28T14:00:03.005Z,44.92
2023-01-28T14:10:35.089Z,43.89
2023-01-28T14:20:44.975Z,41.62
2023-01-28T14:30:54.749Z,43.68
2023-01-28T14:41:01.015Z,43.28
2023-01-28T14:51:44.099Z,44.33
2023-01-28T15:01:48.068Z,43.58
2023-01-28T15:11:53.956Z,42.43
2023-01-28T15:21:58.059Z,44.40
2023-01-28T15:32:01.282Z,43.17
2023-01-28T15:42:06.158Z,45.80
2023-01-28T15:52:08.969Z,44.13
2023-01-28T16:02:22.053Z,44.96
2023-01-28T16:12:27.238Z,43.81
2023-01-28T16:22:38.304Z,44.53
2023-01-28T16:32:42.576Z,48.00
2023-01-28T16:42:45.992Z,46.73
2023-01-28T16:52:50.327Z,46.89
2023-01-28T17:02:54.015Z,48.73
2023-01-28T17:12:56.324Z,48.65
2023-01-28T17:22:59.449Z,50.07
2023-01-28T17:33:01.640Z,49.64
2023-01-28T17:43:04.855Z,50.16
2023-01-28T17:53:06.974Z,54.92
2023-01-28T18:03:12.414Z,50.79
2023-01-28T18:13:14.744Z,50.24
2023-01-28T18:23:16.924Z,51.00
2023-01-28T18:33:19.995Z,51.51
2023-01-28T18:43:22.318Z,51.47
2023-01-28T18:53:26.133Z,51.71
2023-01-28T19:03:28.365Z,52.09
2023-01-28T19:13:31.887Z,51.73
2023-01-28T19:23:49.301Z,51.97
2023-01-28T19:33:58.647Z,52.53
2023-01-28T19:44:00.946Z,52.17
2023-01-28T19:54:03.148Z,51.89
2023-01-28T20:04:05.572Z,53.06
2023-01-28T20:14:08.943Z,53.08
2023-01-28T20:24:12.473Z,52.15
2023-01-28T20:34:19.577Z,54.40
2023-01-28T20:44:22.104Z,52.46
2023-01-28T20:54:25.654Z,54.81
2023-01-28T21:04:27.927Z,56.05
2023-01-28T21:14:30.296Z,54.25
2023-01-28T21:24:32.649Z,53.30
2023-01-28T21:34:35.026Z,53.02
2023-01-28T21:44:37.213Z,52.06
2023-01-28T21:54:39.433Z,52.75
2023-01-28T22:04:43.911Z,53.08
2023-01-28T22:14:48.395Z,53.28
2023-01-28T22:24:50.622Z,53.36
2023-01-28T22:34:52.962Z,53.17
2023-01-28T22:44:55.132Z,54.14
2023-01-28T22:54:57.331Z,54.67
2023-01-28T23:04:59.591Z,54.17
2023-01-28T23:15:20.424Z,55.55
2023-01-28T23:25:23.311Z,53.67
2023-01-28T23:35:26.067Z,54.32
2023-01-28T23:45:28.200Z,54.27
2023-01-28T23:55:30.495Z,57.38
